sensor_id;sensor_type;location;lat;lon;timestamp;P1;durP1;ratioP1;P2;durP2;ratioP2
14722;SDS011;7452;55.594;12.986;2022-09-27T00:00:57;3.00;;;2.10;;
14722;SDS011;7452;55.594;12.986;2022-09-27T00:03:25;5.80;;;2.13;;
14722;SDS011;7452;55.594;12.986;2022-09-27T00:06:01;5.90;;;2.30;;
14722;SDS011;7452;55.594;12.986;2022-09-27T00:08:31;3.37;;;2.13;;
14722;SDS011;7452;55.594;12.986;2022-09-27T00:10:59;3.37;;;2.10;;
14722;SDS011;7452;55.594;12.986;2022-09-27T00:13:27;5.73;;;2.40;;
14722;SDS011;7452;55.594;12.986;2022-09-27T00:15:55;3.30;;;2.27;;
14722;SDS011;7452;55.594;12.986;2022-09-27T00:18:23;5.13;;;2.00;;
14722;SDS011;7452;55.594;12.986;2022-09-27T00:20:51;4.23;;;2.20;;
14722;SDS011;7452;55.594;12.986;2022-09-27T00:23:20;4.70;;;2.30;;
14722;SDS011;7452;55.594;12.986;2022-09-27T00:25:53;2.87;;;2.20;;
14722;SDS011;7452;55.594;12.986;2022-09-27T00:28:21;2.93;;;2.20;;
14722;SDS011;7452;55.594;12.986;2022-09-27T00:30:48;4.50;;;2.30;;
14722;SDS011;7452;55.594;12.986;2022-09-27T00:33:16;3.33;;;2.20;;
14722;SDS011;7452;55.594;12.986;2022-09-27T00:35:43;3.77;;;2.20;;
14722;SDS011;7452;55.594;12.986;2022-09-27T00:38:10;4.07;;;2.40;;
14722;SDS011;7452;55.594;12.986;2022-09-27T00:40:38;3.30;;;2.00;;
14722;SDS011;7452;55.594;12.986;2022-09-27T00:43:09;4.20;;;2.00;;
14722;SDS011;7452;55.594;12.986;2022-09-27T00:45:42;2.33;;;2.00;;
14722;SDS011;7452;55.594;12.986;2022-09-27T00:48:13;4.47;;;2.57;;
14722;SDS011;7452;55.594;12.986;2022-09-27T00:50:43;4.13;;;2.00;;
14722;SDS011;7452;55.594;12.986;2022-09-27T00:53:13;3.33;;;2.20;;
14722;SDS011;7452;55.594;12.986;2022-09-27T00:55:45;3.37;;;2.00;;
14722;SDS011;7452;55.594;12.986;2022-09-27T00:58:16;3.93;;;2.03;;
14722;SDS011;7452;55.594;12.986;2022-09-27T01:00:47;3.23;;;2.13;;
14722;SDS011;7452;55.594;12.986;2022-09-27T01:03:20;3.37;;;2.13;;
14722;SDS011;7452;55.594;12.986;2022-09-27T01:05:50;5.10;;;2.47;;
14722;SDS011;7452;55.594;12.986;2022-09-27T01:08:19;2.27;;;2.00;;
14722;SDS011;7452;55.594;12.986;2022-09-27T01:10:51;4.03;;;2.00;;
14722;SDS011;7452;55.594;12.986;2022-09-27T01:13:34;2.53;;;1.80;;
14722;SDS011;7452;55.594;12.986;2022-09-27T01:16:10;3.67;;;1.90;;
14722;SDS011;7452;55.594;12.986;2022-09-27T01:18:47;3.77;;;1.50;;
14722;SDS011;7452;55.594;12.986;2022-09-27T01:24:24;3.43;;;1.77;;
14722;SDS011;7452;55.594;12.986;2022-09-27T01:30:24;2.17;;;1.40;;
14722;SDS011;7452;55.594;12.986;2022-09-27T01:32:56;3.47;;;1.77;;
14722;SDS011;7452;55.594;12.986;2022-09-27T01:35:34;3.10;;;1.70;;
14722;SDS011;7452;55.594;12.986;2022-09-27T01:38:08;5.83;;;1.90;;
14722;SDS011;7452;55.594;12.986;2022-09-27T01:40:41;2.87;;;1.87;;
14722;SDS011;7452;55.594;12.986;2022-09-27T01:43:15;2.60;;;1.97;;
14722;SDS011;7452;55.594;12.986;2022-09-27T01:45:49;2.87;;;1.73;;
14722;SDS011;7452;55.594;12.986;2022-09-27T01:48:21;2.13;;;1.47;;
14722;SDS011;7452;55.594;12.986;2022-09-27T01:50:51;4.40;;;1.60;;
14722;SDS011;7452;55.594;12.986;2022-09-27T01:53:23;2.50;;;1.60;;
14722;SDS011;7452;55.594;12.986;2022-09-27T01:55:54;1.77;;;1.30;;
14722;SDS011;7452;55.594;12.986;2022-09-27T01:58:25;3.50;;;1.70;;
14722;SDS011;7452;55.594;12.986;2022-09-27T02:00:58;10.87;;;1.83;;
14722;SDS011;7452;55.594;12.986;2022-09-27T02:03:27;3.33;;;1.50;;
14722;SDS011;7452;55.594;12.986;2022-09-27T02:06:00;1.40;;;1.20;;
14722;SDS011;7452;55.594;12.986;2022-09-27T02:08:33;4.20;;;1.50;;
14722;SDS011;7452;55.594;12.986;2022-09-27T02:11:07;4.13;;;1.50;;
14722;SDS011;7452;55.594;12.986;2022-09-27T02:13:37;2.07;;;1.50;;
14722;SDS011;7452;55.594;12.986;2022-09-27T02:16:15;2.57;;;1.10;;
14722;SDS011;7452;55.594;12.986;2022-09-27T02:18:49;3.10;;;1.50;;
14722;SDS011;7452;55.594;12.986;2022-09-27T02:21:20;4.47;;;1.30;;
14722;SDS011;7452;55.594;12.986;2022-09-27T02:23:56;2.60;;;1.47;;
14722;SDS011;7452;55.594;12.986;2022-09-27T02:26:29;3.30;;;1.30;;
14722;SDS011;7452;55.594;12.986;2022-09-27T02:29:06;3.30;;;1.40;;
14722;SDS011;7452;55.594;12.986;2022-09-27T02:31:37;1.50;;;1.27;;
14722;SDS011;7452;55.594;12.986;2022-09-27T02:34:05;5.13;;;1.73;;
14722;SDS011;7452;55.594;12.986;2022-09-27T02:36:34;3.77;;;1.30;;
14722;SDS011;7452;55.594;12.986;2022-09-27T02:39:02;2.00;;;1.20;;
14722;SDS011;7452;55.594;12.986;2022-09-27T02:41:30;1.60;;;1.20;;
14722;SDS011;7452;55.594;12.986;2022-09-27T02:43:58;2.17;;;1.50;;
14722;SDS011;7452;55.594;12.986;2022-09-27T02:46:39;1.37;;;1.20;;
14722;SDS011;7452;55.594;12.986;2022-09-27T02:49:24;2.03;;;1.40;;
14722;SDS011;7452;55.594;12.986;2022-09-27T02:52:08;3.57;;;1.60;;
14722;SDS011;7452;55.594;12.986;2022-09-27T02:54:43;2.47;;;1.40;;
14722;SDS011;7452;55.594;12.986;2022-09-27T02:57:19;3.73;;;1.40;;
14722;SDS011;7452;55.594;12.986;2022-09-27T02:59:56;3.80;;;1.53;;
14722;SDS011;7452;55.594;12.986;2022-09-27T03:02:32;2.93;;;1.60;;
14722;SDS011;7452;55.594;12.986;2022-09-27T03:05:07;2.93;;;1.63;;
14722;SDS011;7452;55.594;12.986;2022-09-27T03:07:38;2.03;;;1.40;;
14722;SDS011;7452;55.594;12.986;2022-09-27T03:10:05;4.57;;;1.60;;
14722;SDS011;7452;55.594;12.986;2022-09-27T03:12:33;4.13;;;1.57;;
14722;SDS011;7452;55.594;12.986;2022-09-27T03:15:00;3.53;;;2.10;;
14722;SDS011;7452;55.594;12.986;2022-09-27T03:17:28;2.90;;;1.70;;
14722;SDS011;7452;55.594;12.986;2022-09-27T03:19:56;3.17;;;1.50;;
14722;SDS011;7452;55.594;12.986;2022-09-27T03:22:23;3.17;;;1.70;;
14722;SDS011;7452;55.594;12.986;2022-09-27T03:24:51;3.97;;;1.87;;
14722;SDS011;7452;55.594;12.986;2022-09-27T03:27:18;2.23;;;1.80;;
14722;SDS011;7452;55.594;12.986;2022-09-27T03:29:45;1.87;;;1.60;;
14722;SDS011;7452;55.594;12.986;2022-09-27T03:32:13;2.97;;;1.70;;
14722;SDS011;7452;55.594;12.986;2022-09-27T03:34:40;1.50;;;1.40;;
14722;SDS011;7452;55.594;12.986;2022-09-27T03:37:09;3.00;;;1.50;;
14722;SDS011;7452;55.594;12.986;2022-09-27T03:39:36;3.30;;;1.60;;
14722;SDS011;7452;55.594;12.986;2022-09-27T03:42:04;3.83;;;1.83;;
14722;SDS011;7452;55.594;12.986;2022-09-27T03:44:31;3.77;;;1.83;;
14722;SDS011;7452;55.594;12.986;2022-09-27T03:46:58;2.47;;;1.83;;
14722;SDS011;7452;55.594;12.986;2022-09-27T03:49:27;2.03;;;1.70;;
14722;SDS011;7452;55.594;12.986;2022-09-27T03:51:54;5.53;;;1.90;;
14722;SDS011;7452;55.594;12.986;2022-09-27T03:54:22;2.20;;;1.80;;
14722;SDS011;7452;55.594;12.986;2022-09-27T03:56:49;2.20;;;1.77;;
14722;SDS011;7452;55.594;12.986;2022-09-27T03:59:17;2.23;;;1.90;;
14722;SDS011;7452;55.594;12.986;2022-09-27T04:01:44;9.53;;;1.70;;
14722;SDS011;7452;55.594;12.986;2022-09-27T04:04:11;3.37;;;1.77;;
14722;SDS011;7452;55.594;12.986;2022-09-27T04:06:39;2.37;;;1.73;;
14722;SDS011;7452;55.594;12.986;2022-09-27T04:09:06;3.10;;;1.87;;
14722;SDS011;7452;55.594;12.986;2022-09-27T04:11:34;5.53;;;1.93;;
14722;SDS011;7452;55.594;12.986;2022-09-27T04:14:01;1.87;;;1.77;;
14722;SDS011;7452;55.594;12.986;2022-09-27T04:16:29;3.17;;;1.77;;
14722;SDS011;7452;55.594;12.986;2022-09-27T04:18:57;2.37;;;1.70;;
14722;SDS011;7452;55.594;12.986;2022-09-27T04:21:26;2.50;;;1.90;;
14722;SDS011;7452;55.594;12.986;2022-09-27T04:23:53;1.83;;;1.70;;
14722;SDS011;7452;55.594;12.986;2022-09-27T04:26:20;5.03;;;1.90;;
14722;SDS011;7452;55.594;12.986;2022-09-27T04:28:49;3.77;;;1.93;;
14722;SDS011;7452;55.594;12.986;2022-09-27T04:31:16;3.50;;;1.83;;
14722;SDS011;7452;55.594;12.986;2022-09-27T04:33:44;2.67;;;1.77;;
14722;SDS011;7452;55.594;12.986;2022-09-27T04:36:12;2.17;;;1.90;;
14722;SDS011;7452;55.594;12.986;2022-09-27T04:38:50;4.60;;;2.00;;
14722;SDS011;7452;55.594;12.986;2022-09-27T04:41:17;1.80;;;1.60;;
14722;SDS011;7452;55.594;12.986;2022-09-27T04:43:46;2.73;;;2.07;;
14722;SDS011;7452;55.594;12.986;2022-09-27T04:46:14;3.40;;;2.20;;
14722;SDS011;7452;55.594;12.986;2022-09-27T04:48:42;3.43;;;1.90;;
14722;SDS011;7452;55.594;12.986;2022-09-27T04:51:09;5.10;;;2.03;;
14722;SDS011;7452;55.594;12.986;2022-09-27T04:53:37;2.70;;;1.93;;
14722;SDS011;7452;55.594;12.986;2022-09-27T04:56:05;3.27;;;1.87;;
14722;SDS011;7452;55.594;12.986;2022-09-27T04:58:32;3.07;;;2.13;;
14722;SDS011;7452;55.594;12.986;2022-09-27T05:01:00;2.50;;;1.90;;
14722;SDS011;7452;55.594;12.986;2022-09-27T05:03:29;1.90;;;1.70;;
14722;SDS011;7452;55.594;12.986;2022-09-27T05:05:56;3.07;;;1.87;;
14722;SDS011;7452;55.594;12.986;2022-09-27T05:08:24;2.80;;;1.60;;
14722;SDS011;7452;55.594;12.986;2022-09-27T05:10:52;1.90;;;1.60;;
14722;SDS011;7452;55.594;12.986;2022-09-27T05:13:19;2.37;;;1.70;;
14722;SDS011;7452;55.594;12.986;2022-09-27T05:15:47;2.33;;;1.83;;
14722;SDS011;7452;55.594;12.986;2022-09-27T05:18:14;3.23;;;1.80;;
14722;SDS011;7452;55.594;12.986;2022-09-27T05:20:43;2.67;;;1.63;;
14722;SDS011;7452;55.594;12.986;2022-09-27T05:23:10;1.93;;;1.60;;
14722;SDS011;7452;55.594;12.986;2022-09-27T05:25:38;3.93;;;1.80;;
14722;SDS011;7452;55.594;12.986;2022-09-27T05:28:06;1.97;;;1.60;;
14722;SDS011;7452;55.594;12.986;2022-09-27T05:30:33;2.37;;;1.90;;
14722;SDS011;7452;55.594;12.986;2022-09-27T05:33:01;2.50;;;1.90;;
14722;SDS011;7452;55.594;12.986;2022-09-27T05:35:29;4.90;;;1.70;;
14722;SDS011;7452;55.594;12.986;2022-09-27T05:37:59;3.47;;;1.97;;
14722;SDS011;7452;55.594;12.986;2022-09-27T05:40:26;4.80;;;2.13;;
14722;SDS011;7452;55.594;12.986;2022-09-27T05:42:54;2.30;;;1.70;;
14722;SDS011;7452;55.594;12.986;2022-09-27T05:45:22;3.60;;;1.77;;
14722;SDS011;7452;55.594;12.986;2022-09-27T05:47:51;3.57;;;1.60;;
14722;SDS011;7452;55.594;12.986;2022-09-27T05:50:19;4.60;;;2.07;;
14722;SDS011;7452;55.594;12.986;2022-09-27T05:52:46;5.00;;;2.20;;
14722;SDS011;7452;55.594;12.986;2022-09-27T05:55:15;5.47;;;2.73;;
14722;SDS011;7452;55.594;12.986;2022-09-27T05:57:42;6.77;;;3.33;;
14722;SDS011;7452;55.594;12.986;2022-09-27T06:00:19;6.23;;;3.03;;
14722;SDS011;7452;55.594;12.986;2022-09-27T06:02:51;5.63;;;2.97;;
14722;SDS011;7452;55.594;12.986;2022-09-27T06:05:19;2.70;;;2.00;;
14722;SDS011;7452;55.594;12.986;2022-09-27T06:07:46;2.97;;;2.30;;
14722;SDS011;7452;55.594;12.986;2022-09-27T06:10:15;2.40;;;2.20;;
14722;SDS011;7452;55.594;12.986;2022-09-27T06:12:42;3.67;;;2.30;;
14722;SDS011;7452;55.594;12.986;2022-09-27T06:15:10;3.30;;;2.30;;
14722;SDS011;7452;55.594;12.986;2022-09-27T06:17:37;3.60;;;2.37;;
14722;SDS011;7452;55.594;12.986;2022-09-27T06:20:04;3.17;;;2.70;;
14722;SDS011;7452;55.594;12.986;2022-09-27T06:22:33;2.60;;;2.40;;
14722;SDS011;7452;55.594;12.986;2022-09-27T06:25:00;5.67;;;2.77;;
14722;SDS011;7452;55.594;12.986;2022-09-27T06:27:29;6.13;;;2.60;;
14722;SDS011;7452;55.594;12.986;2022-09-27T06:29:56;4.10;;;2.80;;
14722;SDS011;7452;55.594;12.986;2022-09-27T06:32:23;4.70;;;2.90;;
14722;SDS011;7452;55.594;12.986;2022-09-27T06:34:50;4.43;;;3.27;;
14722;SDS011;7452;55.594;12.986;2022-09-27T06:37:17;4.00;;;2.83;;
14722;SDS011;7452;55.594;12.986;2022-09-27T06:39:44;5.80;;;3.00;;
14722;SDS011;7452;55.594;12.986;2022-09-27T06:42:13;3.43;;;2.90;;
14722;SDS011;7452;55.594;12.986;2022-09-27T06:44:43;8.10;;;3.53;;
14722;SDS011;7452;55.594;12.986;2022-09-27T06:47:11;4.87;;;3.00;;
14722;SDS011;7452;55.594;12.986;2022-09-27T06:49:39;3.73;;;2.60;;
14722;SDS011;7452;55.594;12.986;2022-09-27T06:52:06;3.73;;;2.90;;
14722;SDS011;7452;55.594;12.986;2022-09-27T06:54:33;3.70;;;3.00;;
14722;SDS011;7452;55.594;12.986;2022-09-27T06:57:01;3.30;;;3.03;;
14722;SDS011;7452;55.594;12.986;2022-09-27T06:59:28;4.73;;;3.20;;
14722;SDS011;7452;55.594;12.986;2022-09-27T07:02:14;3.67;;;2.83;;
14722;SDS011;7452;55.594;12.986;2022-09-27T07:04:41;4.37;;;3.10;;
14722;SDS011;7452;55.594;12.986;2022-09-27T07:07:08;5.30;;;3.40;;
14722;SDS011;7452;55.594;12.986;2022-09-27T07:09:35;7.90;;;3.73;;
14722;SDS011;7452;55.594;12.986;2022-09-27T07:12:04;4.30;;;3.13;;
14722;SDS011;7452;55.594;12.986;2022-09-27T07:14:31;3.87;;;3.50;;
14722;SDS011;7452;55.594;12.986;2022-09-27T07:16:59;9.03;;;3.50;;
14722;SDS011;7452;55.594;12.986;2022-09-27T07:19:27;4.13;;;3.40;;
14722;SDS011;7452;55.594;12.986;2022-09-27T07:21:54;6.13;;;3.47;;
14722;SDS011;7452;55.594;12.986;2022-09-27T07:24:21;4.30;;;3.30;;
14722;SDS011;7452;55.594;12.986;2022-09-27T07:26:49;5.23;;;3.23;;
14722;SDS011;7452;55.594;12.986;2022-09-27T07:29:16;4.00;;;2.90;;
14722;SDS011;7452;55.594;12.986;2022-09-27T07:31:42;7.77;;;3.33;;
14722;SDS011;7452;55.594;12.986;2022-09-27T07:34:10;6.50;;;3.60;;
14722;SDS011;7452;55.594;12.986;2022-09-27T07:36:38;5.60;;;3.20;;
14722;SDS011;7452;55.594;12.986;2022-09-27T07:39:06;4.47;;;3.53;;
14722;SDS011;7452;55.594;12.986;2022-09-27T07:41:32;5.60;;;3.63;;
14722;SDS011;7452;55.594;12.986;2022-09-27T07:44:00;5.93;;;3.63;;
14722;SDS011;7452;55.594;12.986;2022-09-27T07:46:28;4.87;;;3.57;;
14722;SDS011;7452;55.594;12.986;2022-09-27T07:48:56;3.40;;;3.00;;
14722;SDS011;7452;55.594;12.986;2022-09-27T07:51:23;5.00;;;3.40;;
14722;SDS011;7452;55.594;12.986;2022-09-27T07:53:51;4.37;;;3.37;;
14722;SDS011;7452;55.594;12.986;2022-09-27T07:56:19;7.23;;;3.63;;
14722;SDS011;7452;55.594;12.986;2022-09-27T07:58:46;7.00;;;3.47;;
14722;SDS011;7452;55.594;12.986;2022-09-27T08:01:13;6.40;;;3.90;;
14722;SDS011;7452;55.594;12.986;2022-09-27T08:03:40;5.73;;;3.57;;
14722;SDS011;7452;55.594;12.986;2022-09-27T08:06:07;4.30;;;3.37;;
14722;SDS011;7452;55.594;12.986;2022-09-27T08:08:34;5.67;;;3.77;;
14722;SDS011;7452;55.594;12.986;2022-09-27T08:11:10;4.73;;;3.30;;
14722;SDS011;7452;55.594;12.986;2022-09-27T08:13:39;4.90;;;3.20;;
14722;SDS011;7452;55.594;12.986;2022-09-27T08:16:06;4.57;;;3.60;;
14722;SDS011;7452;55.594;12.986;2022-09-27T08:18:34;4.20;;;3.80;;
14722;SDS011;7452;55.594;12.986;2022-09-27T08:21:01;5.83;;;3.97;;
14722;SDS011;7452;55.594;12.986;2022-09-27T08:23:28;4.17;;;3.20;;
14722;SDS011;7452;55.594;12.986;2022-09-27T08:25:55;4.20;;;3.37;;
14722;SDS011;7452;55.594;12.986;2022-09-27T08:28:25;4.50;;;2.90;;
14722;SDS011;7452;55.594;12.986;2022-09-27T08:30:52;4.90;;;3.20;;
14722;SDS011;7452;55.594;12.986;2022-09-27T08:33:20;4.20;;;3.00;;
14722;SDS011;7452;55.594;12.986;2022-09-27T08:35:49;5.30;;;2.80;;
14722;SDS011;7452;55.594;12.986;2022-09-27T08:38:16;4.70;;;3.10;;
14722;SDS011;7452;55.594;12.986;2022-09-27T08:40:46;2.87;;;2.57;;
14722;SDS011;7452;55.594;12.986;2022-09-27T08:43:21;4.10;;;2.80;;
14722;SDS011;7452;55.594;12.986;2022-09-27T08:45:59;6.03;;;2.73;;
14722;SDS011;7452;55.594;12.986;2022-09-27T08:48:40;3.23;;;2.83;;
14722;SDS011;7452;55.594;12.986;2022-09-27T08:51:19;3.17;;;2.70;;
14722;SDS011;7452;55.594;12.986;2022-09-27T08:53:50;3.17;;;2.87;;
14722;SDS011;7452;55.594;12.986;2022-09-27T08:56:20;3.27;;;2.50;;
14722;SDS011;7452;55.594;12.986;2022-09-27T08:58:50;4.83;;;3.00;;
14722;SDS011;7452;55.594;12.986;2022-09-27T09:01:21;3.83;;;3.00;;
14722;SDS011;7452;55.594;12.986;2022-09-27T09:03:49;3.27;;;2.73;;
14722;SDS011;7452;55.594;12.986;2022-09-27T09:06:19;4.97;;;2.87;;
14722;SDS011;7452;55.594;12.986;2022-09-27T09:08:51;4.17;;;2.60;;
14722;SDS011;7452;55.594;12.986;2022-09-27T09:11:31;3.30;;;2.60;;
14722;SDS011;7452;55.594;12.986;2022-09-27T09:17:26;3.63;;;2.70;;
14722;SDS011;7452;55.594;12.986;2022-09-27T09:20:10;4.77;;;3.10;;
14722;SDS011;7452;55.594;12.986;2022-09-27T09:22:45;3.23;;;2.93;;
14722;SDS011;7452;55.594;12.986;2022-09-27T09:25:24;4.47;;;3.03;;
14722;SDS011;7452;55.594;12.986;2022-09-27T09:28:00;3.30;;;3.00;;
14722;SDS011;7452;55.594;12.986;2022-09-27T09:30:43;6.47;;;3.77;;
14722;SDS011;7452;55.594;12.986;2022-09-27T09:33:22;5.63;;;3.50;;
14722;SDS011;7452;55.594;12.986;2022-09-27T09:35:54;5.30;;;3.40;;
14722;SDS011;7452;55.594;12.986;2022-09-27T09:38:26;4.63;;;3.60;;
14722;SDS011;7452;55.594;12.986;2022-09-27T09:41:02;5.83;;;4.07;;
14722;SDS011;7452;55.594;12.986;2022-09-27T09:43:36;4.73;;;3.70;;
14722;SDS011;7452;55.594;12.986;2022-09-27T09:46:09;4.20;;;3.77;;
14722;SDS011;7452;55.594;12.986;2022-09-27T09:48:43;6.03;;;4.23;;
14722;SDS011;7452;55.594;12.986;2022-09-27T09:51:15;4.70;;;4.13;;
14722;SDS011;7452;55.594;12.986;2022-09-27T09:53:48;5.33;;;4.40;;
14722;SDS011;7452;55.594;12.986;2022-09-27T09:56:19;3.80;;;3.50;;
14722;SDS011;7452;55.594;12.986;2022-09-27T09:58:51;4.83;;;4.10;;
14722;SDS011;7452;55.594;12.986;2022-09-27T10:01:21;5.90;;;4.50;;
14722;SDS011;7452;55.594;12.986;2022-09-27T10:03:54;6.13;;;4.30;;
14722;SDS011;7452;55.594;12.986;2022-09-27T10:06:21;5.77;;;3.87;;
14722;SDS011;7452;55.594;12.986;2022-09-27T10:08:50;5.40;;;3.43;;
14722;SDS011;7452;55.594;12.986;2022-09-27T10:11:20;3.80;;;3.33;;
14722;SDS011;7452;55.594;12.986;2022-09-27T10:13:50;3.27;;;2.80;;
14722;SDS011;7452;55.594;12.986;2022-09-27T10:16:19;3.33;;;2.90;;
14722;SDS011;7452;55.594;12.986;2022-09-27T10:18:48;4.53;;;2.77;;
14722;SDS011;7452;55.594;12.986;2022-09-27T10:21:19;2.37;;;2.17;;
14722;SDS011;7452;55.594;12.986;2022-09-27T10:26:36;3.23;;;1.90;;
14722;SDS011;7452;55.594;12.986;2022-09-27T10:31:57;2.63;;;1.70;;
14722;SDS011;7452;55.594;12.986;2022-09-27T10:34:27;1.60;;;1.50;;
14722;SDS011;7452;55.594;12.986;2022-09-27T10:37:03;5.43;;;1.50;;
14722;SDS011;7452;55.594;12.986;2022-09-27T10:39:32;3.03;;;1.60;;
14722;SDS011;7452;55.594;12.986;2022-09-27T10:42:01;3.30;;;1.60;;
14722;SDS011;7452;55.594;12.986;2022-09-27T10:44:29;1.20;;;1.10;;
14722;SDS011;7452;55.594;12.986;2022-09-27T10:46:57;2.10;;;1.20;;
14722;SDS011;7452;55.594;12.986;2022-09-27T10:49:27;2.33;;;1.23;;
14722;SDS011;7452;55.594;12.986;2022-09-27T10:51:58;1.57;;;1.13;;
14722;SDS011;7452;55.594;12.986;2022-09-27T10:54:29;2.53;;;1.50;;
14722;SDS011;7452;55.594;12.986;2022-09-27T10:56:59;2.37;;;1.17;;
14722;SDS011;7452;55.594;12.986;2022-09-27T10:59:30;2.20;;;1.40;;
14722;SDS011;7452;55.594;12.986;2022-09-27T11:01:59;1.90;;;1.40;;
14722;SDS011;7452;55.594;12.986;2022-09-27T11:04:28;1.77;;;1.50;;
14722;SDS011;7452;55.594;12.986;2022-09-27T11:07:10;3.30;;;1.60;;
14722;SDS011;7452;55.594;12.986;2022-09-27T11:09:46;1.60;;;1.50;;
14722;SDS011;7452;55.594;12.986;2022-09-27T11:12:14;3.13;;;2.03;;
14722;SDS011;7452;55.594;12.986;2022-09-27T11:14:45;5.70;;;2.00;;
14722;SDS011;7452;55.594;12.986;2022-09-27T11:17:20;4.57;;;2.37;;
14722;SDS011;7452;55.594;12.986;2022-09-27T11:19:55;5.53;;;2.43;;
14722;SDS011;7452;55.594;12.986;2022-09-27T11:22:48;2.67;;;2.07;;
14722;SDS011;7452;55.594;12.986;2022-09-27T11:25:44;3.10;;;2.43;;
14722;SDS011;7452;55.594;12.986;2022-09-27T11:28:20;3.13;;;2.13;;
14722;SDS011;7452;55.594;12.986;2022-09-27T11:31:00;2.63;;;1.83;;
14722;SDS011;7452;55.594;12.986;2022-09-27T11:33:44;3.20;;;2.07;;
14722;SDS011;7452;55.594;12.986;2022-09-27T11:36:26;4.23;;;2.33;;
14722;SDS011;7452;55.594;12.986;2022-09-27T11:39:05;3.90;;;2.20;;
14722;SDS011;7452;55.594;12.986;2022-09-27T11:41:47;4.97;;;2.97;;
14722;SDS011;7452;55.594;12.986;2022-09-27T11:44:33;4.00;;;3.00;;
14722;SDS011;7452;55.594;12.986;2022-09-27T11:47:15;3.83;;;2.77;;
14722;SDS011;7452;55.594;12.986;2022-09-27T11:49:57;3.47;;;2.77;;
14722;SDS011;7452;55.594;12.986;2022-09-27T11:52:49;3.50;;;3.20;;
14722;SDS011;7452;55.594;12.986;2022-09-27T11:55:29;4.93;;;3.60;;
14722;SDS011;7452;55.594;12.986;2022-09-27T11:58:07;5.97;;;3.77;;
14722;SDS011;7452;55.594;12.986;2022-09-27T12:00:45;5.07;;;3.83;;
14722;SDS011;7452;55.594;12.986;2022-09-27T12:03:33;5.87;;;4.00;;
14722;SDS011;7452;55.594;12.986;2022-09-27T12:06:18;5.87;;;4.17;;
14722;SDS011;7452;55.594;12.986;2022-09-27T12:08:54;7.13;;;5.00;;
14722;SDS011;7452;55.594;12.986;2022-09-27T12:11:34;5.87;;;4.63;;
14722;SDS011;7452;55.594;12.986;2022-09-27T12:14:06;6.23;;;5.30;;
14722;SDS011;7452;55.594;12.986;2022-09-27T12:16:39;6.13;;;5.23;;
14722;SDS011;7452;55.594;12.986;2022-09-27T12:19:10;6.23;;;4.87;;
14722;SDS011;7452;55.594;12.986;2022-09-27T12:21:43;5.87;;;4.83;;
14722;SDS011;7452;55.594;12.986;2022-09-27T12:24:14;6.80;;;4.27;;
14722;SDS011;7452;55.594;12.986;2022-09-27T12:26:46;5.90;;;4.30;;
14722;SDS011;7452;55.594;12.986;2022-09-27T12:29:19;4.67;;;4.00;;
14722;SDS011;7452;55.594;12.986;2022-09-27T12:31:50;4.27;;;3.60;;
14722;SDS011;7452;55.594;12.986;2022-09-27T12:34:25;4.43;;;3.33;;
14722;SDS011;7452;55.594;12.986;2022-09-27T12:37:02;3.40;;;3.10;;
14722;SDS011;7452;55.594;12.986;2022-09-27T12:39:46;4.53;;;3.07;;
14722;SDS011;7452;55.594;12.986;2022-09-27T12:42:19;5.57;;;2.90;;
14722;SDS011;7452;55.594;12.986;2022-09-27T12:44:50;3.50;;;2.90;;
14722;SDS011;7452;55.594;12.986;2022-09-27T12:47:22;3.33;;;2.70;;
14722;SDS011;7452;55.594;12.986;2022-09-27T12:50:00;4.43;;;2.70;;
14722;SDS011;7452;55.594;12.986;2022-09-27T12:52:34;3.23;;;2.17;;
14722;SDS011;7452;55.594;12.986;2022-09-27T12:55:10;3.30;;;2.20;;
14722;SDS011;7452;55.594;12.986;2022-09-27T12:58:00;2.10;;;1.70;;
14722;SDS011;7452;55.594;12.986;2022-09-27T13:00:51;2.57;;;1.60;;
14722;SDS011;7452;55.594;12.986;2022-09-27T13:03:37;2.13;;;1.50;;
14722;SDS011;7452;55.594;12.986;2022-09-27T13:06:19;3.00;;;1.73;;
14722;SDS011;7452;55.594;12.986;2022-09-27T13:11:55;5.17;;;1.77;;
14722;SDS011;7452;55.594;12.986;2022-09-27T13:14:29;1.70;;;1.60;;
14722;SDS011;7452;55.594;12.986;2022-09-27T13:17:03;2.07;;;1.87;;
14722;SDS011;7452;55.594;12.986;2022-09-27T13:19:37;2.73;;;2.20;;
14722;SDS011;7452;55.594;12.986;2022-09-27T13:22:07;3.27;;;2.13;;
14722;SDS011;7452;55.594;12.986;2022-09-27T13:24:42;2.70;;;2.30;;
14722;SDS011;7452;55.594;12.986;2022-09-27T13:33:30;2.77;;;2.57;;
14722;SDS011;7452;55.594;12.986;2022-09-27T13:36:19;4.67;;;2.97;;
14722;SDS011;7452;55.594;12.986;2022-09-27T13:39:00;4.13;;;2.80;;
14722;SDS011;7452;55.594;12.986;2022-09-27T13:41:32;4.87;;;2.17;;
14722;SDS011;7452;55.594;12.986;2022-09-27T13:44:08;3.60;;;2.50;;
14722;SDS011;7452;55.594;12.986;2022-09-27T13:46:44;3.07;;;2.40;;
14722;SDS011;7452;55.594;12.986;2022-09-27T13:49:20;3.63;;;2.53;;
14722;SDS011;7452;55.594;12.986;2022-09-27T13:51:50;3.30;;;2.43;;
14722;SDS011;7452;55.594;12.986;2022-09-27T13:54:38;2.50;;;2.30;;
14722;SDS011;7452;55.594;12.986;2022-09-27T13:57:37;3.80;;;3.20;;
14722;SDS011;7452;55.594;12.986;2022-09-27T14:00:12;5.03;;;3.30;;
14722;SDS011;7452;55.594;12.986;2022-09-27T14:02:45;4.17;;;3.57;;
14722;SDS011;7452;55.594;12.986;2022-09-27T14:05:29;4.73;;;3.80;;
14722;SDS011;7452;55.594;12.986;2022-09-27T14:07:59;5.47;;;4.00;;
14722;SDS011;7452;55.594;12.986;2022-09-27T14:10:29;6.33;;;4.53;;
14722;SDS011;7452;55.594;12.986;2022-09-27T14:12:57;6.17;;;5.47;;
14722;SDS011;7452;55.594;12.986;2022-09-27T14:15:26;6.57;;;5.93;;
14722;SDS011;7452;55.594;12.986;2022-09-27T14:17:55;7.13;;;5.93;;
14722;SDS011;7452;55.594;12.986;2022-09-27T14:20:34;6.80;;;6.17;;
14722;SDS011;7452;55.594;12.986;2022-09-27T14:23:04;6.63;;;5.90;;
14722;SDS011;7452;55.594;12.986;2022-09-27T14:25:32;7.17;;;6.50;;
14722;SDS011;7452;55.594;12.986;2022-09-27T14:27:59;7.27;;;6.57;;
14722;SDS011;7452;55.594;12.986;2022-09-27T14:30:27;6.90;;;6.30;;
14722;SDS011;7452;55.594;12.986;2022-09-27T14:32:55;8.87;;;7.03;;
14722;SDS011;7452;55.594;12.986;2022-09-27T14:35:27;8.67;;;7.87;;
14722;SDS011;7452;55.594;12.986;2022-09-27T14:38:28;9.67;;;8.77;;
14722;SDS011;7452;55.594;12.986;2022-09-27T14:40:57;10.97;;;9.83;;
14722;SDS011;7452;55.594;12.986;2022-09-27T14:43:25;10.63;;;9.60;;
14722;SDS011;7452;55.594;12.986;2022-09-27T14:45:56;10.57;;;9.50;;
14722;SDS011;7452;55.594;12.986;2022-09-27T14:48:26;11.50;;;10.47;;
14722;SDS011;7452;55.594;12.986;2022-09-27T14:50:55;12.43;;;10.93;;
14722;SDS011;7452;55.594;12.986;2022-09-27T14:53:27;13.37;;;11.23;;
14722;SDS011;7452;55.594;12.986;2022-09-27T14:55:56;13.50;;;10.90;;
14722;SDS011;7452;55.594;12.986;2022-09-27T14:58:23;12.13;;;10.50;;
14722;SDS011;7452;55.594;12.986;2022-09-27T15:00:52;10.27;;;9.20;;
14722;SDS011;7452;55.594;12.986;2022-09-27T15:03:21;11.60;;;8.43;;
14722;SDS011;7452;55.594;12.986;2022-09-27T15:05:53;10.43;;;8.87;;
14722;SDS011;7452;55.594;12.986;2022-09-27T15:08:24;11.20;;;10.17;;
14722;SDS011;7452;55.594;12.986;2022-09-27T15:10:57;12.53;;;10.10;;
14722;SDS011;7452;55.594;12.986;2022-09-27T15:13:25;11.20;;;8.93;;
14722;SDS011;7452;55.594;12.986;2022-09-27T15:15:53;10.67;;;9.43;;
14722;SDS011;7452;55.594;12.986;2022-09-27T15:18:31;10.97;;;9.87;;
14722;SDS011;7452;55.594;12.986;2022-09-27T15:21:04;14.80;;;10.43;;
14722;SDS011;7452;55.594;12.986;2022-09-27T15:23:35;19.27;;;11.07;;
14722;SDS011;7452;55.594;12.986;2022-09-27T15:26:05;14.10;;;10.90;;
14722;SDS011;7452;55.594;12.986;2022-09-27T15:28:42;13.90;;;11.80;;
14722;SDS011;7452;55.594;12.986;2022-09-27T15:31:10;18.07;;;11.70;;
14722;SDS011;7452;55.594;12.986;2022-09-27T15:33:38;13.57;;;11.83;;
14722;SDS011;7452;55.594;12.986;2022-09-27T15:36:07;14.87;;;12.57;;